Terminal Aerodrome Forecast
Issued by NWS Paducah, KY

Home | Current Version | Previous Version | Text Only | Print | Product List | Glossary On
Versions: 1 2 3 4 5 6 7 8 9 10 11 12 13 14 15 16 17
000
FTUS43 KPAH 011739
TAFEVV
TAF
KEVV 011739Z 0118/0218 34004KT P6SM OVC030
     FM011930 35005KT 6SM BR BKN018 OVC035
     FM012300 36006KT P6SM SCT023 OVC040
     FM020300 35005KT 6SM BR BKN150
     FM020700 01004KT P6SM BKN110
     FM021100 03004KT P6SM SKC=

USA.gov is the U.S. government's official web portal to all federal, state and local government web resources and services.